Time;durP1;ratioP1;P1;durP2;ratioP2;P2;SDS_P1;SDS_P2;PMS_P1;PMS_P2;Temp;Humidity;BMP_temperature;BMP_pressure;BME280_temperature;BME280_humidity;BME280_pressure;Samples;Min_cycle;Max_cycle;Signal;HPM_P1;HPM_P2
2022/11/04 00:01:42;;;;;;;9.00;6.32;;;;;;;10.95;nan;99480.00;5026989;28;20481;-65
2022/11/04 00:04:09;;;;;;;10.55;7.32;;;;;;;10.95;nan;99485.28;5027327;28;20079;-65
2022/11/04 00:06:35;;;;;;;11.57;7.28;;;;;;;10.98;nan;99477.00;5027089;28;20034;-65
2022/11/04 00:09:00;;;;;;;9.57;7.00;;;;;;;10.99;nan;99468.88;5027921;28;20512;-66
2022/11/04 00:14:11;;;;;;;10.63;6.60;;;;;;;10.98;nan;99466.41;5027298;28;20040;-66
2022/11/04 00:19:21;;;;;;;9.35;6.43;;;;;;;10.93;nan;99450.28;5027565;28;20413;-65
2022/11/04 00:29:57;;;;;;;8.25;5.55;;;;;;;10.77;nan;99446.78;5027716;28;20036;-65
2022/11/04 00:35:08;;;;;;;5.85;4.35;;;;;;;10.78;nan;99456.34;5027541;28;20040;-65
2022/11/04 00:37:40;;;;;;;5.95;4.07;;;;;;;10.80;nan;99472.06;5027338;28;20179;-66
2022/11/04 00:40:07;;;;;;;6.25;3.63;;;;;;;10.82;nan;99472.66;5026731;28;20060;-70
2022/11/04 00:42:33;;;;;;;4.22;3.13;;;;;;;10.79;nan;99465.91;5027195;28;20034;-66
2022/11/04 00:44:58;;;;;;;3.90;2.70;;;;;;;10.77;nan;99478.53;5032124;28;20524;-66
2022/11/04 00:47:24;;;;;;;4.47;2.90;;;;;;;10.76;nan;99481.34;5027399;28;20034;-65
2022/11/04 00:49:49;;;;;;;3.95;2.80;;;;;;;10.77;nan;99467.09;5027307;28;20482;-65
2022/11/04 00:52:15;;;;;;;4.25;2.60;;;;;;;10.76;nan;99476.03;5028209;28;20052;-66
2022/11/04 00:54:40;;;;;;;4.05;2.53;;;;;;;10.72;nan;99491.44;5045105;28;20259;-66
2022/11/04 00:57:11;;;;;;;4.20;2.38;;;;;;;10.75;nan;99499.03;5028021;28;20063;-65
2022/11/04 00:59:38;;;;;;;5.53;2.08;;;;;;;10.76;nan;99497.19;5039098;28;20445;-65
2022/11/04 01:02:04;;;;;;;3.45;2.28;;;;;;;10.74;nan;99504.47;5026693;28;20040;-66
2022/11/04 01:04:29;;;;;;;4.15;2.03;;;;;;;10.74;nan;99507.13;5027230;28;20112;-65
2022/11/04 01:06:54;;;;;;;3.40;1.75;;;;;;;10.73;nan;99501.03;5027176;28;20048;-66
2022/11/04 01:09:19;;;;;;;4.25;2.15;;;;;;;10.72;nan;99506.47;5027242;28;20044;-65
2022/11/04 01:11:45;;;;;;;2.90;1.73;;;;;;;10.70;nan;99497.91;5026648;28;20029;-65
2022/11/04 01:14:10;;;;;;;2.97;1.90;;;;;;;10.67;nan;99493.78;5026406;28;20148;-66
2022/11/04 01:16:35;;;;;;;3.33;1.90;;;;;;;10.66;nan;99496.63;5026729;28;20494;-65
2022/11/04 01:19:01;;;;;;;2.40;1.52;;;;;;;10.66;nan;99507.22;5030364;28;20421;-66
2022/11/04 01:21:27;;;;;;;3.10;1.85;;;;;;;10.66;nan;99497.44;5030587;28;20137;-66
2022/11/04 01:23:53;;;;;;;3.38;1.83;;;;;;;10.66;nan;99497.44;5041719;28;20033;-66
2022/11/04 01:26:21;;;;;;;2.50;1.60;;;;;;;10.66;nan;99496.63;5048857;28;20319;-66
2022/11/04 01:28:47;;;;;;;2.35;1.38;;;;;;;10.62;nan;99501.44;5044146;28;20045;-66
2022/11/04 01:31:20;;;;;;;4.43;1.95;;;;;;;10.68;nan;99510.47;5030640;28;20101;-66
2022/11/04 01:33:46;;;;;;;2.67;1.60;;;;;;;10.69;nan;99523.53;5030136;28;20033;-66
2022/11/04 01:36:12;;;;;;;2.83;1.63;;;;;;;10.65;nan;99521.41;5029770;28;20037;-66
2022/11/04 01:38:38;;;;;;;3.38;1.67;;;;;;;10.65;nan;99518.75;5030000;28;20108;-66
2022/11/04 01:41:04;;;;;;;2.05;1.30;;;;;;;10.65;nan;99514.28;5030574;28;20091;-65
2022/11/04 01:43:50;;;;;;;2.75;1.40;;;;;;;10.65;nan;99522.22;5029492;28;20052;-66
2022/11/04 01:46:32;;;;;;;2.58;1.52;;;;;;;10.61;nan;99516.47;5010112;28;20109;-66
2022/11/04 01:49:22;;;;;;;2.03;1.30;;;;;;;10.61;nan;99516.47;5029540;28;20045;-66
2022/11/04 01:51:50;;;;;;;2.63;1.40;;;;;;;10.60;nan;99517.47;5029825;28;20175;-66
2022/11/04 01:54:17;;;;;;;1.70;1.13;;;;;;;10.60;nan;99520.09;5047259;28;20055;-66
2022/11/04 01:56:45;;;;;;;1.67;1.30;;;;;;;10.59;nan;99513.19;5029464;28;20031;-66
2022/11/04 01:59:17;;;;;;;2.97;1.35;;;;;;;10.60;nan;99521.94;5039579;28;20075;-66
2022/11/04 02:01:42;;;;;;;2.85;1.48;;;;;;;10.59;nan;99530.88;5029647;28;20087;-66
2022/11/04 02:04:24;;;;;;;2.97;1.40;;;;;;;10.57;nan;99519.66;5027731;28;20029;-66
2022/11/04 02:06:52;;;;;;;3.08;1.27;;;;;;;10.59;nan;99522.94;5029692;28;20036;-66
2022/11/04 02:09:19;;;;;;;2.47;1.40;;;;;;;10.58;nan;99521.28;5029582;28;20041;-66
2022/11/04 02:14:29;;;;;;;2.67;1.40;;;;;;;10.60;nan;99521.94;5028820;28;20071;-66
2022/11/04 02:17:04;;;;;;;3.10;1.38;;;;;;;10.61;nan;99529.69;5029649;28;20034;-65
2022/11/04 02:19:47;;;;;;;2.25;1.35;;;;;;;10.62;nan;99528.69;5029436;28;20121;-66
2022/11/04 02:22:54;;;;;;;2.40;1.30;;;;;;;10.61;nan;99529.69;5028816;28;20037;-66
2022/11/04 02:25:56;;;;;;;2.15;1.40;;;;;;;10.58;nan;99531.84;5021507;28;20063;-66
2022/11/04 02:29:07;;;;;;;4.00;1.70;;;;;;;10.56;nan;99537.34;5043599;28;20109;-66
2022/11/04 02:32:03;;;;;;;2.42;1.30;;;;;;;10.55;nan;99534.88;5029142;28;20033;-66
2022/11/04 02:35:05;;;;;;;2.28;1.20;;;;;;;10.51;nan;99536.19;5028081;28;20501;-66
2022/11/04 02:37:46;;;;;;;2.53;1.48;;;;;;;10.44;nan;99541.41;5028750;28;20033;-66
2022/11/04 02:40:23;;;;;;;2.50;1.20;;;;;;;10.46;nan;99543.84;5028691;28;20077;-67
2022/11/04 02:43:03;;;;;;;2.97;1.50;;;;;;;10.42;nan;99538.09;5028414;28;20042;-66
2022/11/04 02:45:47;;;;;;;2.17;1.30;;;;;;;10.44;nan;99538.75;5043989;28;20503;-66
2022/11/04 02:48:30;;;;;;;2.50;1.27;;;;;;;10.45;nan;99529.81;5039281;28;20041;-66
2022/11/04 02:51:04;;;;;;;2.40;1.38;;;;;;;10.45;nan;99534.28;5027524;28;20022;-66
2022/11/04 02:53:37;;;;;;;2.95;1.25;;;;;;;10.46;nan;99536.72;5029761;28;20064;-66
2022/11/04 02:56:04;;;;;;;2.90;1.35;;;;;;;10.40;nan;99546.19;5029522;28;20082;-66
2022/11/04 02:58:35;;;;;;;2.38;1.40;;;;;;;10.43;nan;99550.31;5031531;28;20056;-66
2022/11/04 03:01:03;;;;;;;2.22;1.33;;;;;;;10.43;nan;99546.84;5035054;28;20078;-66
2022/11/04 03:03:34;;;;;;;2.58;1.50;;;;;;;10.41;nan;99552.28;5028202;28;20046;-66
2022/11/04 03:06:01;;;;;;;2.58;1.55;;;;;;;10.43;nan;99566.16;5027989;28;20140;-66
2022/11/04 03:08:33;;;;;;;3.42;1.45;;;;;;;10.45;nan;99587.13;5027880;28;20033;-66
2022/11/04 03:11:05;;;;;;;2.00;1.20;;;;;;;10.43;nan;99576.72;5027252;28;20204;-66
2022/11/04 03:13:52;;;;;;;2.53;1.50;;;;;;;10.41;nan;99565.50;5028071;28;20163;-66
2022/11/04 03:16:32;;;;;;;2.80;1.13;;;;;;;10.41;nan;99568.97;5026979;28;20042;-66
2022/11/04 03:19:06;;;;;;;2.90;1.35;;;;;;;10.43;nan;99584.66;5028419;28;20406;-66
2022/11/04 03:21:36;;;;;;;1.77;1.17;;;;;;;10.43;nan;99566.16;5027497;28;20049;-66
2022/11/04 03:24:03;;;;;;;2.92;1.42;;;;;;;10.41;nan;99584.00;5037237;28;20053;-66
2022/11/04 03:26:33;;;;;;;3.25;1.30;;;;;;;10.41;nan;99605.16;5028377;28;20445;-66
2022/11/04 03:29:11;;;;;;;1.83;1.00;;;;;;;10.40;nan;99601.69;5028738;28;20037;-66
2022/11/04 03:32:11;;;;;;;2.05;1.08;;;;;;;10.38;nan;99589.66;5029835;28;20273;-66
2022/11/04 03:34:37;;;;;;;2.70;1.30;;;;;;;10.36;nan;99596.91;5026702;28;20041;-66
2022/11/04 03:37:03;;;;;;;2.35;1.35;;;;;;;10.32;nan;99604.38;5028650;28;20082;-66
2022/11/04 03:39:28;;;;;;;2.38;1.20;;;;;;;10.26;nan;99601.56;5026782;28;20518;-66
2022/11/04 03:42:01;;;;;;;2.38;1.17;;;;;;;10.22;nan;99611.66;5026104;28;20030;-66
2022/11/04 03:44:28;;;;;;;2.83;1.45;;;;;;;10.15;nan;99608.03;5032907;28;20474;-66
2022/11/04 03:46:53;;;;;;;3.25;1.10;;;;;;;10.10;nan;99597.19;5048002;28;20493;-66
2022/11/04 03:49:21;;;;;;;3.00;1.10;;;;;;;10.03;nan;99593.56;5030723;28;20267;-66
2022/11/04 03:51:47;;;;;;;2.67;1.30;;;;;;;9.98;nan;99596.72;5027329;28;20488;-66
2022/11/04 03:54:14;;;;;;;3.03;1.20;;;;;;;9.93;nan;99593.78;5029789;28;20073;-66
2022/11/04 03:56:46;;;;;;;4.43;1.30;;;;;;;9.87;nan;99591.84;5028056;28;20075;-66
2022/11/04 03:59:23;;;;;;;3.15;1.00;;;;;;;9.77;nan;99584.94;5037137;28;20037;-66
2022/11/04 04:01:50;;;;;;;2.65;1.00;;;;;;;9.68;nan;99578.00;5040190;28;20421;-66
2022/11/04 04:04:47;;;;;;;2.58;0.98;;;;;;;9.57;nan;99581.81;5027135;28;20040;-66
2022/11/04 04:07:27;;;;;;;2.83;1.27;;;;;;;9.46;nan;99586.63;5027492;28;20041;-66
2022/11/04 04:10:00;;;;;;;3.03;1.30;;;;;;;9.40;nan;99585.50;5028030;28;20406;-66
2022/11/04 04:12:33;;;;;;;3.40;1.50;;;;;;;9.36;nan;99592.91;5026573;28;20175;-66
2022/11/04 04:15:07;;;;;;;3.42;1.60;;;;;;;9.31;nan;99592.59;5027833;28;20025;-66
2022/11/04 04:17:44;;;;;;;3.47;1.48;;;;;;;9.27;nan;99595.72;5018237;28;20045;-66
2022/11/04 04:20:18;;;;;;;3.25;1.40;;;;;;;9.25;nan;99603.81;5026956;28;20061;-66
2022/11/04 04:22:56;;;;;;;3.22;1.25;;;;;;;9.24;nan;99610.06;5029671;28;20497;-66
2022/11/04 04:28:13;;;;;;;3.75;1.38;;;;;;;9.19;nan;99608.94;5026838;28;20517;-66
2022/11/04 04:30:41;;;;;;;2.80;1.15;;;;;;;9.14;nan;99585.69;5026787;28;20090;-66
2022/11/04 04:33:10;;;;;;;3.75;1.25;;;;;;;9.13;nan;99581.41;5026883;28;20496;-66
2022/11/04 04:35:42;;;;;;;2.50;1.20;;;;;;;9.08;nan;99566.06;5027530;28;20052;-66
2022/11/04 04:46:38;;;;;;;3.97;1.40;;;;;;;8.84;nan;99579.25;5032688;28;20048;-66
2022/11/04 04:49:08;;;;;;;4.13;1.35;;;;;;;8.79;nan;99579.72;5027440;28;20498;-66
2022/11/04 04:51:37;;;;;;;4.53;1.60;;;;;;;8.75;nan;99569.66;5028184;28;20052;-66
2022/11/04 04:54:03;;;;;;;3.67;1.50;;;;;;;8.72;nan;99568.19;5030622;28;20330;-66
2022/11/04 04:56:28;;;;;;;2.97;1.60;;;;;;;8.71;nan;99571.81;5030563;28;20029;-66
2022/11/04 04:58:53;;;;;;;2.33;1.50;;;;;;;8.69;nan;99571.97;5038086;28;20094;-66
2022/11/04 05:01:18;;;;;;;4.70;1.30;;;;;;;8.66;nan;99571.50;5034989;28;20520;-66
2022/11/04 05:03:44;;;;;;;2.90;1.15;;;;;;;8.65;nan;99573.31;5030756;28;20072;-66
2022/11/04 05:06:09;;;;;;;3.50;1.30;;;;;;;8.64;nan;99568.19;5029918;28;20068;-66
2022/11/04 05:08:34;;;;;;;1.90;1.10;;;;;;;8.61;nan;99569.34;5030773;28;20272;-66
2022/11/04 05:10:59;;;;;;;3.63;1.40;;;;;;;8.58;nan;99568.84;5030732;28;20710;-66
2022/11/04 05:13:25;;;;;;;2.75;1.27;;;;;;;8.56;nan;99566.38;5030275;28;20072;-66
2022/11/04 05:15:51;;;;;;;2.75;1.20;;;;;;;8.54;nan;99557.81;5029998;28;20033;-66
2022/11/04 05:18:16;;;;;;;3.03;1.42;;;;;;;8.53;nan;99550.88;5030134;28;20602;-66
2022/11/04 05:20:42;;;;;;;3.22;1.30;;;;;;;8.52;nan;99548.41;5030169;28;20049;-66
2022/11/04 05:23:10;;;;;;;3.05;1.30;;;;;;;8.53;nan;99545.59;5036267;28;20039;-66
2022/11/04 05:25:38;;;;;;;2.72;1.00;;;;;;;8.54;nan;99546.44;5037410;28;20537;-66
2022/11/04 05:28:04;;;;;;;3.42;1.17;;;;;;;8.55;nan;99542.81;5030713;28;20429;-66
2022/11/04 05:30:30;;;;;;;2.20;1.10;;;;;;;8.57;nan;99552.19;5029543;28;20041;-66
2022/11/04 05:32:55;;;;;;;2.15;1.10;;;;;;;8.62;nan;99562.25;5027839;28;20124;-66
2022/11/04 05:35:20;;;;;;;5.25;1.42;;;;;;;8.71;nan;99570.00;5029661;28;20412;-66
2022/11/04 05:37:45;;;;;;;3.20;1.25;;;;;;;8.79;nan;99558.63;5029890;28;20034;-66
2022/11/04 05:40:11;;;;;;;2.88;1.38;;;;;;;8.87;nan;99549.94;5030184;28;20448;-66
2022/11/04 05:42:36;;;;;;;2.75;1.10;;;;;;;8.95;nan;99549.91;5029743;28;20033;-66
2022/11/04 05:45:03;;;;;;;3.13;1.05;;;;;;;9.01;nan;99540.50;5041028;28;20036;-65
2022/11/04 05:47:28;;;;;;;2.15;1.10;;;;;;;9.04;nan;99538.38;5050360;28;20029;-65
2022/11/04 05:49:53;;;;;;;2.95;1.20;;;;;;;9.10;nan;99542.97;5030829;28;20546;-66
2022/11/04 05:52:19;;;;;;;3.70;1.38;;;;;;;9.14;nan;99544.31;5027337;28;20037;-65
2022/11/04 05:54:44;;;;;;;3.72;1.30;;;;;;;9.19;nan;99550.91;5030165;28;20029;-65
2022/11/04 05:57:09;;;;;;;3.75;1.40;;;;;;;9.25;nan;99547.59;5037693;28;20049;-66
2022/11/04 05:59:34;;;;;;;5.90;1.70;;;;;;;9.29;nan;99548.91;5034802;28;20083;-65
2022/11/04 06:02:00;;;;;;;4.50;1.55;;;;;;;9.31;nan;99554.84;5029924;28;20326;-65
2022/11/04 06:04:25;;;;;;;5.20;1.60;;;;;;;9.33;nan;99553.66;5028437;28;20102;-66
2022/11/04 06:06:50;;;;;;;4.03;1.35;;;;;;;9.35;nan;99550.88;5029917;28;20109;-66
2022/11/04 06:09:16;;;;;;;5.18;1.45;;;;;;;9.36;nan;99553.31;5027091;28;20049;-66
2022/11/04 06:11:41;;;;;;;2.92;1.38;;;;;;;9.38;nan;99550.53;5029656;28;20243;-65
2022/11/04 06:14:06;;;;;;;4.63;1.33;;;;;;;9.42;nan;99561.59;5028940;28;20038;-66
2022/11/04 06:16:32;;;;;;;7.65;1.52;;;;;;;9.44;nan;99556.94;5029422;28;20529;-65
2022/11/04 06:18:57;;;;;;;4.72;1.40;;;;;;;9.45;nan;99569.97;5029480;28;20038;-66
2022/11/04 06:21:28;;;;;;;2.33;1.15;;;;;;;9.49;nan;99576.56;5029041;28;20037;-66
2022/11/04 06:23:56;;;;;;;5.18;1.50;;;;;;;9.46;nan;99581.34;5029565;28;20125;-66
2022/11/04 06:26:22;;;;;;;2.50;1.30;;;;;;;9.44;nan;99578.91;5032341;28;20094;-66
2022/11/04 06:28:47;;;;;;;4.53;1.60;;;;;;;9.44;nan;99578.06;5027763;28;20033;-65
2022/11/04 06:31:14;;;;;;;3.67;1.60;;;;;;;9.45;nan;99577.91;5028925;28;20187;-66
2022/11/04 06:33:40;;;;;;;3.28;1.25;;;;;;;9.51;nan;99584.31;5029310;28;20029;-66
2022/11/04 06:36:06;;;;;;;2.95;1.27;;;;;;;9.54;nan;99584.81;5028914;28;20064;-66
2022/11/04 06:38:34;;;;;;;3.58;1.50;;;;;;;9.57;nan;99587.09;5028900;28;20033;-66
2022/11/04 06:40:59;;;;;;;4.65;1.25;;;;;;;9.57;nan;99581.81;5029314;28;20021;-65
2022/11/04 06:43:25;;;;;;;3.90;1.55;;;;;;;9.58;nan;99593.19;5029445;28;20038;-66
2022/11/04 06:45:59;;;;;;;3.30;1.15;;;;;;;9.59;nan;99580.84;5028829;28;20205;-66
2022/11/04 06:48:25;;;;;;;3.15;1.15;;;;;;;9.55;nan;99573.25;5028487;28;20048;-66
2022/11/04 06:50:50;;;;;;;4.55;1.30;;;;;;;9.52;nan;99578.88;5029197;28;20026;-66
2022/11/04 06:53:16;;;;;;;5.28;1.30;;;;;;;9.49;nan;99583.69;5038775;28;20047;-66
2022/11/04 06:55:41;;;;;;;3.55;1.10;;;;;;;9.47;nan;99575.91;5033522;28;20429;-66
2022/11/04 06:58:07;;;;;;;3.22;1.40;;;;;;;9.44;nan;99576.25;5029201;28;20045;-66
2022/11/04 07:00:33;;;;;;;4.03;1.25;;;;;;;9.48;nan;99580.19;5028426;28;20026;-66
2022/11/04 07:02:58;;;;;;;4.10;1.45;;;;;;;9.52;nan;99585.97;5028428;28;20060;-66
2022/11/04 07:05:23;;;;;;;3.45;1.05;;;;;;;9.52;nan;99578.06;5029013;28;20029;-66
2022/11/04 07:07:49;;;;;;;3.67;1.00;;;;;;;9.52;nan;99578.88;5027402;28;20033;-66
2022/11/04 07:10:15;;;;;;;5.10;1.23;;;;;;;9.57;nan;99581.81;5027875;28;20458;-66
2022/11/04 07:12:40;;;;;;;5.43;1.23;;;;;;;9.63;nan;99582.97;5028817;28;20033;-66
2022/11/04 07:15:06;;;;;;;3.93;1.60;;;;;;;9.67;nan;99586.09;5028299;28;20509;-66
2022/11/04 07:17:31;;;;;;;3.35;1.30;;;;;;;9.72;nan;99597.78;5028273;28;20276;-66
2022/11/04 07:19:56;;;;;;;3.35;1.13;;;;;;;9.77;nan;99589.34;5028149;28;20390;-66
2022/11/04 07:22:22;;;;;;;3.47;1.30;;;;;;;9.82;nan;99602.06;5027933;28;20103;-66
2022/11/04 07:24:48;;;;;;;3.08;1.15;;;;;;;9.84;nan;99608.81;5042839;28;20490;-66
2022/11/04 07:27:13;;;;;;;2.28;0.93;;;;;;;9.86;nan;99612.09;5028798;28;20040;-66
2022/11/04 07:29:39;;;;;;;2.15;1.00;;;;;;;9.91;nan;99617.69;5027894;28;20037;-66
2022/11/04 07:32:04;;;;;;;2.83;1.15;;;;;;;9.97;nan;99617.03;5028088;28;20121;-66
2022/11/04 07:34:30;;;;;;;3.35;1.17;;;;;;;10.03;nan;99617.34;5026787;28;20112;-66
2022/11/04 07:36:55;;;;;;;2.35;1.05;;;;;;;10.06;nan;99622.28;5029207;28;20040;-66
2022/11/04 07:39:20;;;;;;;4.23;1.33;;;;;;;10.09;nan;99616.66;5026318;28;20026;-66
2022/11/04 07:41:46;;;;;;;3.25;1.00;;;;;;;10.13;nan;99624.09;5026599;28;20304;-67
2022/11/04 07:44:12;;;;;;;3.92;1.25;;;;;;;10.17;nan;99622.72;5031908;28;20056;-67
2022/11/04 07:46:38;;;;;;;4.40;1.05;;;;;;;10.20;nan;99619.75;5040134;28;20112;-66
2022/11/04 07:49:03;;;;;;;3.90;1.20;;;;;;;10.24;nan;99622.88;5028170;28;20099;-67
2022/11/04 07:51:31;;;;;;;2.22;1.00;;;;;;;10.29;nan;99614.47;5026223;28;20573;-66
2022/11/04 07:53:56;;;;;;;2.55;1.25;;;;;;;10.30;nan;99613.47;5041274;28;20574;-67
2022/11/04 07:56:22;;;;;;;3.95;1.30;;;;;;;10.35;nan;99608.50;5027871;28;20037;-67
2022/11/04 07:58:48;;;;;;;2.50;1.00;;;;;;;10.38;nan;99605.50;5034094;28;20043;-66
2022/11/04 08:01:16;;;;;;;3.40;1.00;;;;;;;10.45;nan;99606.44;5027647;28;20038;-66
2022/11/04 08:03:41;;;;;;;3.67;1.20;;;;;;;10.47;nan;99596.53;5027694;28;20140;-66
2022/11/04 08:06:09;;;;;;;1.88;0.90;;;;;;;10.51;nan;99592.56;5027059;28;20132;-67
2022/11/04 08:08:35;;;;;;;3.40;1.10;;;;;;;10.61;nan;99597.63;5027833;28;20052;-66
2022/11/04 08:11:04;;;;;;;4.13;1.05;;;;;;;10.68;nan;99593.28;5027192;28;20409;-66
2022/11/04 08:13:31;;;;;;;2.53;0.98;;;;;;;10.77;nan;99591.38;5027342;28;20088;-66
2022/11/04 08:15:59;;;;;;;3.10;0.93;;;;;;;10.82;nan;99597.81;5025997;28;20057;-66
2022/11/04 08:18:24;;;;;;;3.35;1.20;;;;;;;10.82;nan;99592.53;5026635;28;20103;-66
2022/11/04 08:20:50;;;;;;;4.28;1.27;;;;;;;10.89;nan;99586.50;5028271;28;20477;-66
2022/11/04 08:23:17;;;;;;;3.45;1.00;;;;;;;10.98;nan;99590.72;5026416;28;20493;-67
2022/11/04 08:25:42;;;;;;;3.45;1.33;;;;;;;10.96;nan;99596.19;5028445;28;20504;-66
2022/11/04 08:28:11;;;;;;;2.72;1.10;;;;;;;11.01;nan;99603.59;5031583;28;20029;-67
2022/11/04 08:30:37;;;;;;;6.72;1.20;;;;;;;11.07;nan;99599.44;5031831;28;20037;-66
2022/11/04 08:33:04;;;;;;;3.70;0.82;;;;;;;11.14;nan;99595.09;5030045;28;20119;-66
2022/11/04 08:35:30;;;;;;;3.55;1.27;;;;;;;11.20;nan;99581.97;5031855;28;20045;-66
2022/11/04 08:37:55;;;;;;;1.95;0.90;;;;;;;11.29;nan;99584.53;5031270;28;20029;-66
2022/11/04 08:40:20;;;;;;;2.58;1.00;;;;;;;11.39;nan;99579.78;5028969;28;20033;-66
2022/11/04 08:42:46;;;;;;;4.28;1.40;;;;;;;11.47;nan;99582.38;5030729;28;20275;-66
2022/11/04 08:45:12;;;;;;;2.97;1.45;;;;;;;11.51;nan;99581.00;5031117;28;20033;-66
2022/11/04 08:47:38;;;;;;;2.92;1.10;;;;;;;11.61;nan;99578.09;5031582;28;20047;-66
2022/11/04 08:50:04;;;;;;;1.73;1.10;;;;;;;11.66;nan;99573.91;5012511;28;20076;-67
2022/11/04 08:52:29;;;;;;;1.98;0.90;;;;;;;11.68;nan;99585.13;5034122;28;20057;-67
2022/11/04 08:54:54;;;;;;;2.00;1.08;;;;;;;11.67;nan;99578.19;5051453;28;20056;-66
2022/11/04 08:57:20;;;;;;;3.50;1.25;;;;;;;11.71;nan;99591.06;5034712;28;20107;-66
2022/11/04 08:59:45;;;;;;;2.53;0.90;;;;;;;11.72;nan;99596.16;5045286;28;20120;-67
2022/11/04 09:02:17;;;;;;;3.90;1.02;;;;;;;11.81;nan;99592.44;5035296;28;20044;-67
2022/11/04 09:04:42;;;;;;;3.13;1.20;;;;;;;11.85;nan;99599.00;5030614;28;20044;-67
2022/11/04 09:07:07;;;;;;;3.38;1.30;;;;;;;11.99;nan;99591.25;5030825;28;20033;-67
2022/11/04 09:09:33;;;;;;;1.38;1.00;;;;;;;12.01;nan;99591.91;5031228;28;20083;-67
2022/11/04 09:11:58;;;;;;;2.28;1.20;;;;;;;12.06;nan;99595.66;5030335;28;20060;-67
2022/11/04 09:14:23;;;;;;;2.40;1.00;;;;;;;12.04;nan;99602.97;5029951;28;20524;-66
2022/11/04 09:16:49;;;;;;;2.47;1.20;;;;;;;12.07;nan;99607.06;5031340;28;20033;-67
2022/11/04 09:19:14;;;;;;;3.92;1.08;;;;;;;12.13;nan;99605.50;5030419;28;20061;-67
2022/11/04 09:21:40;;;;;;;3.28;1.20;;;;;;;12.06;nan;99606.25;5030738;28;20591;-67
2022/11/04 09:24:06;;;;;;;4.40;0.95;;;;;;;12.10;nan;99612.00;5039955;28;20445;-68
2022/11/04 09:26:32;;;;;;;3.10;1.10;;;;;;;12.15;nan;99609.63;5050887;28;20396;-67
2022/11/04 09:28:58;;;;;;;3.55;1.02;;;;;;;12.33;nan;99606.59;5047551;28;20041;-67
2022/11/04 09:31:26;;;;;;;3.55;0.90;;;;;;;12.51;nan;99607.00;5030766;28;20049;-67
2022/11/04 09:33:53;;;;;;;1.88;0.90;;;;;;;12.59;nan;99615.88;5028786;28;20041;-67
2022/11/04 09:36:19;;;;;;;2.45;1.10;;;;;;;12.63;nan;99615.31;5029874;28;20095;-67
2022/11/04 09:38:44;;;;;;;2.92;1.20;;;;;;;12.67;nan;99626.34;5029458;28;20025;-66
2022/11/04 09:41:30;;;;;;;2.53;1.08;;;;;;;12.58;nan;99632.78;5030399;28;20101;-66
2022/11/04 09:44:13;;;;;;;2.53;1.13;;;;;;;12.63;nan;99633.03;5032015;28;20050;-67
2022/11/04 09:46:39;;;;;;;2.63;1.17;;;;;;;12.63;nan;99633.03;5049923;28;20029;-67
2022/11/04 09:49:07;;;;;;;3.22;1.13;;;;;;;12.67;nan;99636.97;5042599;28;20048;-67
2022/11/04 09:51:33;;;;;;;2.08;1.20;;;;;;;12.73;nan;99637.03;5028484;28;20044;-67
2022/11/04 09:54:11;;;;;;;3.15;1.30;;;;;;;12.76;nan;99641.13;5045484;28;20037;-67
2022/11/04 09:56:41;;;;;;;3.50;1.40;;;;;;;12.84;nan;99648.97;5031278;28;20101;-67
2022/11/04 09:59:10;;;;;;;2.25;1.08;;;;;;;12.81;nan;99656.50;5038915;28;20033;-67
2022/11/04 10:01:43;;;;;;;2.45;1.10;;;;;;;12.70;nan;99647.19;5041837;28;20397;-67
2022/11/04 10:04:30;;;;;;;2.42;1.20;;;;;;;12.80;nan;99650.38;5029471;28;20103;-67
2022/11/04 10:07:11;;;;;;;2.85;1.25;;;;;;;13.04;nan;99648.34;5030103;28;20053;-67
2022/11/04 10:09:39;;;;;;;3.50;1.30;;;;;;;13.13;nan;99639.25;5030142;28;20227;-67
2022/11/04 10:12:30;;;;;;;3.90;1.45;;;;;;;13.13;nan;99644.56;5029299;28;20037;-67
2022/11/04 10:15:28;;;;;;;2.40;1.10;;;;;;;13.15;nan;99643.34;5031723;28;20044;-67
2022/11/04 10:18:09;;;;;;;1.95;1.10;;;;;;;13.27;nan;99638.38;5050261;28;20045;-67
2022/11/04 10:20:52;;;;;;;2.20;1.10;;;;;;;13.32;nan;99638.66;5034925;28;20038;-67
2022/11/04 10:23:21;;;;;;;2.95;1.20;;;;;;;13.21;nan;99636.47;5034660;28;20052;-67
2022/11/04 10:26:13;;;;;;;2.88;1.17;;;;;;;13.08;nan;99644.31;5035547;28;20048;-67
2022/11/04 10:28:48;;;;;;;1.67;1.00;;;;;;;12.92;nan;99635.59;5029411;28;20030;-66
2022/11/04 10:31:16;;;;;;;3.10;1.20;;;;;;;12.78;nan;99623.22;5029356;28;20107;-67
2022/11/04 10:33:54;;;;;;;3.08;1.33;;;;;;;12.68;nan;99620.88;5029610;28;20059;-67
2022/11/04 10:36:20;;;;;;;3.22;1.15;;;;;;;12.62;nan;99631.41;5029036;28;20512;-67
2022/11/04 10:38:47;;;;;;;4.10;1.65;;;;;;;12.51;nan;99622.09;5029578;28;20029;-67
2022/11/04 10:41:38;;;;;;;4.03;1.33;;;;;;;12.51;nan;99627.38;5029150;28;20116;-67
2022/11/04 10:44:13;;;;;;;1.52;1.08;;;;;;;12.58;nan;99616.84;5031666;28;20045;-67
2022/11/04 10:47:34;;;;;;;1.80;1.10;;;;;;;12.73;nan;99622.97;5048893;28;20021;-67
2022/11/04 10:50:03;;;;;;;1.65;1.10;;;;;;;12.86;nan;99614.31;5005658;28;20044;-67
2022/11/04 10:52:32;;;;;;;3.38;1.20;;;;;;;12.91;nan;99610.06;5048410;28;20036;-67
2022/11/04 10:54:57;;;;;;;3.17;1.30;;;;;;;12.92;nan;99610.91;5049183;28;20044;-67
2022/11/04 10:57:24;;;;;;;2.03;1.20;;;;;;;13.01;nan;99609.75;5032958;28;20037;-67
2022/11/04 10:59:58;;;;;;;3.05;1.30;;;;;;;12.98;nan;99610.13;5040058;28;20084;-67
2022/11/04 11:02:36;;;;;;;1.90;1.20;;;;;;;12.81;nan;99609.56;5027330;28;20045;-67
2022/11/04 11:05:22;;;;;;;3.17;1.30;;;;;;;12.68;nan;99607.59;5029275;28;20402;-67
2022/11/04 11:07:50;;;;;;;3.63;1.25;;;;;;;12.61;nan;99605.88;5028437;28;20136;-67
2022/11/04 11:10:22;;;;;;;3.08;1.27;;;;;;;12.73;nan;99607.03;5028207;28;20627;-67
2022/11/04 11:13:03;;;;;;;2.47;1.20;;;;;;;12.88;nan;99606.97;5028931;28;20293;-66
2022/11/04 11:15:31;;;;;;;;;;;;;;;12.92;nan;99611.72;5028206;28;20042;-66
2022/11/04 11:18:21;;;;;;;3.33;1.10;;;;;;;12.99;nan;99610.94;5028313;28;19948;-66
2022/11/04 11:21:04;;;;;;;2.78;1.20;;;;;;;13.03;nan;99617.53;5028765;28;20037;-67
2022/11/04 11:23:35;;;;;;;2.47;1.00;;;;;;;13.19;nan;99611.97;5037258;28;20322;-67
2022/11/04 11:26:02;;;;;;;2.75;1.10;;;;;;;13.38;nan;99610.50;5032820;28;20029;-67
2022/11/04 11:28:28;;;;;;;3.30;1.10;;;;;;;13.44;nan;99614.22;5028536;28;20025;-67
2022/11/04 11:30:57;;;;;;;3.33;1.08;;;;;;;13.45;nan;99602.59;5028481;28;20298;-67
2022/11/04 11:33:26;;;;;;;2.58;1.10;;;;;;;13.52;nan;99606.13;5027979;28;20029;-66
2022/11/04 11:36:11;;;;;;;2.85;1.05;;;;;;;13.65;nan;99595.56;5028123;28;20734;-67
2022/11/04 11:38:50;;;;;;;3.45;1.00;;;;;;;13.78;nan;99595.66;5028277;28;20069;-67
2022/11/04 11:41:17;;;;;;;2.85;1.10;;;;;;;13.85;nan;99601.03;5029110;28;20049;-67
2022/11/04 11:43:48;;;;;;;2.50;1.10;;;;;;;13.81;nan;99587.28;5028015;28;20044;-67
2022/11/04 11:46:24;;;;;;;3.67;1.30;;;;;;;13.89;nan;99585.50;5047887;28;20477;-67
2022/11/04 11:48:51;;;;;;;4.70;1.08;;;;;;;13.96;nan;99589.81;5047983;28;20451;-67
2022/11/04 11:51:29;;;;;;;3.20;1.20;;;;;;;14.19;nan;99586.88;5047942;28;20806;-66
2022/11/04 11:54:24;;;;;;;3.38;1.10;;;;;;;14.21;nan;99589.34;5047702;28;20124;-66
2022/11/04 11:56:55;;;;;;;5.05;1.30;;;;;;;14.16;nan;99584.63;5045699;28;20029;-66
2022/11/04 11:59:43;;;;;;;4.43;1.23;;;;;;;14.18;nan;99579.09;5026147;28;20042;-67
2022/11/04 12:02:18;;;;;;;2.60;0.90;;;;;;;14.49;nan;99577.75;5026431;28;20045;-67
2022/11/04 12:04:44;;;;;;;3.75;0.93;;;;;;;14.60;nan;99574.56;5028473;28;20116;-67
2022/11/04 12:07:39;;;;;;;2.35;1.20;;;;;;;14.69;nan;99577.84;5025908;28;20041;-67
2022/11/04 12:10:30;;;;;;;3.92;1.25;;;;;;;14.52;nan;99580.03;5027477;28;20065;-67
2022/11/04 12:13:15;;;;;;;2.42;1.10;;;;;;;14.42;nan;99569.78;5020940;28;20421;-67
2022/11/04 12:15:58;;;;;;;3.72;1.10;;;;;;;14.34;nan;99567.28;5027709;28;20033;-66
2022/11/04 12:18:38;;;;;;;3.10;1.25;;;;;;;14.20;nan;99561.91;5027784;28;20096;-66
2022/11/04 12:21:12;;;;;;;4.65;1.63;;;;;;;14.26;nan;99562.16;5024757;28;20446;-66
2022/11/04 12:23:49;;;;;;;3.40;1.00;;;;;;;14.43;nan;99566.91;5025704;28;20038;-66
2022/11/04 12:26:50;;;;;;;3.28;1.20;;;;;;;14.83;nan;99566.22;5026255;28;20041;-66
2022/11/04 12:29:34;;;;;;;3.57;1.23;;;;;;;15.13;nan;99574.59;5026632;28;20172;-66
2022/11/04 12:32:15;;;;;;;2.40;0.90;;;;;;;15.34;nan;99568.25;5023370;28;20038;-66
2022/11/04 12:34:52;;;;;;;2.28;1.13;;;;;;;15.43;nan;99569.69;5025502;28;20029;-66
2022/11/04 12:37:58;;;;;;;4.07;1.10;;;;;;;15.24;nan;99574.00;5027041;28;20043;-66
2022/11/04 12:40:42;;;;;;;3.45;1.38;;;;;;;15.21;nan;99578.94;5026032;28;20498;-67
2022/11/04 12:43:08;;;;;;;3.17;1.20;;;;;;;15.14;nan;99584.25;5026963;28;20052;-66